Time;durP1;ratioP1;P1;durP2;ratioP2;P2;SDS_P1;SDS_P2;PMS_P1;PMS_P2;Temp;Humidity;BMP_temperature;BMP_pressure;BME280_temperature;BME280_humidity;BME280_pressure;Samples;Min_cycle;Max_cycle;Signal;HPM_P1;HPM_P2
2022/10/29 00:00:35;;;;;;;6.20;5.70;;;21.80;50.80;;;;;;5011916;28;21098;-62
2022/10/29 00:03:01;;;;;;;6.00;5.60;;;21.80;50.70;;;;;;5026290;28;22931;-65
2022/10/29 00:05:26;;;;;;;6.07;5.67;;;21.80;50.70;;;;;;5011641;28;21413;-60
2022/10/29 00:07:52;;;;;;;5.17;4.87;;;21.80;50.70;;;;;;5036017;28;20804;-65
2022/10/29 00:10:17;;;;;;;5.33;5.03;;;21.80;50.70;;;;;;5037288;28;20866;-63
2022/10/29 00:12:43;;;;;;;6.33;5.73;;;21.70;50.70;;;;;;5016168;28;20257;-65
2022/10/29 00:15:09;;;;;;;5.60;5.20;;;21.70;51.50;;;;;;5014215;28;20957;-63
2022/10/29 00:17:35;;;;;;;5.30;4.90;;;21.70;50.70;;;;;;5019991;28;20726;-62
2022/10/29 00:20:01;;;;;;;6.30;5.80;;;21.70;50.70;;;;;;5014573;28;21239;-63
2022/10/29 00:22:26;;;;;;;6.10;5.60;;;21.80;50.80;;;;;;5016773;28;20665;-64
2022/10/29 00:24:52;;;;;;;5.90;5.50;;;21.70;50.70;;;;;;5017192;28;20217;-65
2022/10/29 00:27:17;;;;;;;5.13;4.83;;;21.70;50.70;;;;;;5013536;28;20224;-62
2022/10/29 00:29:43;;;;;;;5.57;5.17;;;21.70;50.70;;;;;;5019393;28;20228;-64
2022/10/29 00:32:08;;;;;;;5.17;4.83;;;21.70;50.70;;;;;;5015814;28;20244;-60
2022/10/29 00:34:35;;;;;;;5.53;5.13;;;21.80;50.80;;;;;;5018493;28;20348;-59
2022/10/29 00:37:01;;;;;;;5.93;5.60;;;21.70;50.80;;;;;;5013189;28;20234;-64
2022/10/29 00:39:28;;;;;;;5.10;4.80;;;21.70;50.70;;;;;;5013271;28;20479;-61
2022/10/29 00:41:54;;;;;;;5.50;5.20;;;21.70;50.70;;;;;;5014033;28;21469;-64
2022/10/29 00:44:30;;;;;;;5.60;5.07;;;21.80;50.80;;;;;;5017821;28;20547;-60
2022/10/29 00:47:08;;;;;;;5.23;4.83;;;21.70;50.80;;;;;;5014630;28;20565;-59
2022/10/29 00:49:34;;;;;;;5.30;4.80;;;21.70;50.70;;;;;;5014361;28;20469;-64
2022/10/29 00:52:03;;;;;;;5.50;5.10;;;21.70;50.70;;;;;;5009533;28;20466;-60
2022/10/29 00:54:32;;;;;;;5.23;4.93;;;21.70;50.70;;;;;;5021126;28;21304;-65
2022/10/29 00:57:04;;;;;;;5.20;4.90;;;21.70;50.70;;;;;;5015809;28;20975;-60
2022/10/29 00:59:30;;;;;;;5.80;5.27;;;21.70;51.40;;;;;;5017236;28;20487;-63
2022/10/29 01:01:56;;;;;;;6.47;5.97;;;21.70;50.70;;;;;;5013755;28;20467;-64
2022/10/29 01:04:23;;;;;;;5.67;5.27;;;21.70;50.70;;;;;;5017668;28;20265;-65
2022/10/29 01:06:49;;;;;;;5.90;5.50;;;21.70;50.80;;;;;;5016180;28;20222;-63
2022/10/29 01:09:14;;;;;;;5.87;5.40;;;21.70;50.70;;;;;;5008174;28;21680;-59
2022/10/29 01:12:35;;;;;;;4.77;4.47;;;21.70;50.70;;;;;;5023177;28;20460;-59
2022/10/29 01:15:13;;;;;;;5.00;4.70;;;21.70;50.70;;;;;;5011894;28;20240;-61
2022/10/29 01:17:53;;;;;;;5.23;4.73;;;21.70;50.80;;;;;;5015935;28;20471;-63
2022/10/29 01:20:45;;;;;;;5.10;4.70;;;21.70;50.70;;;;;;5010854;28;20596;-62
2022/10/29 01:23:55;;;;;;;5.67;5.27;;;21.70;50.70;;;;;;5014237;28;20467;-61
2022/10/29 01:26:36;;;;;;;5.50;5.10;;;21.70;50.70;;;;;;5015080;28;20471;-61
2022/10/29 01:29:32;;;;;;;5.37;4.97;;;21.70;50.80;;;;;;5012252;28;20497;-63
2022/10/29 01:32:11;;;;;;;4.90;4.63;;;21.70;50.80;;;;;;5016859;28;20473;-61
2022/10/29 01:34:56;;;;;;;5.10;4.80;;;21.70;50.70;;;;;;5018120;28;20574;-64
2022/10/29 01:37:46;;;;;;;5.53;5.23;;;21.70;50.80;;;;;;5017774;28;20968;-61
2022/10/29 01:40:15;;;;;;;5.30;4.80;;;21.70;50.80;;;;;;5026425;28;20521;-61
2022/10/29 01:42:50;;;;;;;5.23;4.87;;;21.70;50.80;;;;;;5015603;28;20524;-60
2022/10/29 01:45:22;;;;;;;4.50;4.20;;;21.70;50.80;;;;;;5016654;28;20474;-60
2022/10/29 01:47:56;;;;;;;6.43;4.60;;;21.70;51.60;;;;;;5018227;28;20441;-58
2022/10/29 01:50:23;;;;;;;5.30;5.00;;;21.70;50.80;;;;;;5022436;28;20455;-58
2022/10/29 01:52:50;;;;;;;4.63;4.23;;;21.70;50.80;;;;;;5016843;28;21037;-64
2022/10/29 01:55:19;;;;;;;5.20;4.90;;;21.70;50.80;;;;;;5014221;28;20438;-61
2022/10/29 01:57:45;;;;;;;5.03;4.70;;;21.70;50.80;;;;;;5010953;28;20463;-65
2022/10/29 02:00:16;;;;;;;5.93;5.43;;;21.70;51.50;;;;;;5012681;28;20466;-64
2022/10/29 02:03:00;;;;;;;4.67;4.37;;;21.70;50.80;;;;;;5014775;28;21651;-65
2022/10/29 02:05:54;;;;;;;5.10;4.70;;;21.70;50.80;;;;;;5014450;28;20935;-64
2022/10/29 02:08:22;;;;;;;4.67;4.47;;;21.70;50.80;;;;;;5022646;28;20467;-65
2022/10/29 02:11:00;;;;;;;5.30;4.90;;;21.70;50.90;;;;;;5014510;28;20468;-59
2022/10/29 02:13:43;;;;;;;4.73;4.40;;;21.70;50.90;;;;;;5017408;28;20442;-59
2022/10/29 02:16:10;;;;;;;7.10;6.60;;;21.70;50.80;;;;;;5003593;28;20526;-59
2022/10/29 02:18:44;;;;;;;4.50;4.30;;;21.70;50.90;;;;;;5009962;28;21025;-63
2022/10/29 02:21:10;;;;;;;4.97;4.57;;;21.70;50.80;;;;;;5021806;28;20534;-62
2022/10/29 02:23:36;;;;;;;4.80;4.50;;;21.70;50.80;;;;;;5020502;28;20460;-61
2022/10/29 02:26:01;;;;;;;6.53;5.07;;;21.70;50.80;;;;;;5017979;28;20458;-60
2022/10/29 02:28:27;;;;;;;4.60;4.40;;;21.70;50.80;;;;;;5001063;28;20238;-61
2022/10/29 02:30:52;;;;;;;4.80;4.50;;;21.70;50.90;;;;;;5015688;28;20226;-59
2022/10/29 02:33:18;;;;;;;4.47;4.17;;;21.70;50.80;;;;;;5016316;28;20262;-63
2022/10/29 02:35:43;;;;;;;5.20;4.77;;;21.70;50.80;;;;;;5024509;28;20744;-65
2022/10/29 02:38:09;;;;;;;4.73;4.43;;;21.70;50.80;;;;;;5020202;28;20244;-59
2022/10/29 02:40:34;;;;;;;4.90;4.70;;;21.70;50.90;;;;;;5018248;28;20309;-57
2022/10/29 02:43:00;;;;;;;5.07;4.63;;;21.70;50.80;;;;;;5016973;28;20667;-59
2022/10/29 02:45:25;;;;;;;5.10;4.80;;;21.70;50.80;;;;;;5017543;28;20304;-60
2022/10/29 02:47:51;;;;;;;4.10;3.90;;;21.70;50.80;;;;;;5021340;28;21182;-63
2022/10/29 02:50:16;;;;;;;4.03;3.83;;;21.70;50.90;;;;;;5020406;28;20227;-64
2022/10/29 02:52:42;;;;;;;5.13;4.73;;;21.70;50.80;;;;;;5016037;28;20811;-65
2022/10/29 02:55:08;;;;;;;4.40;4.10;;;21.70;50.80;;;;;;5017517;28;20844;-61
2022/10/29 02:57:33;;;;;;;4.37;4.07;;;21.70;50.90;;;;;;5020082;28;20564;-60
2022/10/29 02:59:59;;;;;;;5.33;5.03;;;21.70;50.90;;;;;;5016528;28;20773;-65
2022/10/29 03:02:24;;;;;;;4.70;4.40;;;21.70;50.90;;;;;;5013095;28;20249;-63
2022/10/29 03:04:50;;;;;;;4.50;4.20;;;21.70;50.90;;;;;;5013496;28;20226;-65
2022/10/29 03:07:15;;;;;;;4.63;4.37;;;21.70;50.80;;;;;;5018023;28;20222;-59
2022/10/29 03:09:41;;;;;;;4.40;4.20;;;21.70;50.80;;;;;;5014829;28;20307;-65
2022/10/29 03:12:07;;;;;;;4.80;4.50;;;21.70;50.80;;;;;;5015468;28;20600;-63
2022/10/29 03:14:32;;;;;;;3.80;3.60;;;21.70;50.80;;;;;;5017106;28;20352;-62
2022/10/29 03:16:58;;;;;;;4.30;4.10;;;21.70;50.90;;;;;;5022879;28;20235;-65
2022/10/29 03:19:23;;;;;;;4.87;4.50;;;21.70;50.80;;;;;;5016438;28;20218;-65
2022/10/29 03:21:49;;;;;;;4.90;4.60;;;21.70;50.90;;;;;;5015537;28;20299;-65
2022/10/29 03:24:14;;;;;;;4.30;4.10;;;21.70;50.80;;;;;;5016929;28;20633;-63
2022/10/29 03:26:40;;;;;;;4.47;4.20;;;21.70;50.90;;;;;;5015195;28;20242;-63
2022/10/29 03:29:05;;;;;;;4.47;4.27;;;21.70;50.80;;;;;;5016326;28;20214;-61
2022/10/29 03:31:31;;;;;;;4.33;4.13;;;21.70;50.90;;;;;;5018974;28;20226;-64
2022/10/29 03:33:56;;;;;;;4.53;4.23;;;21.70;50.80;;;;;;5015702;28;20221;-65
2022/10/29 03:36:22;;;;;;;4.07;3.87;;;21.70;50.80;;;;;;5015788;28;20229;-65
2022/10/29 03:38:47;;;;;;;4.80;4.50;;;21.70;50.90;;;;;;5017251;28;20252;-62
2022/10/29 03:41:13;;;;;;;4.30;4.10;;;21.70;50.80;;;;;;5015613;28;20304;-65
2022/10/29 03:43:39;;;;;;;4.57;4.27;;;21.70;50.80;;;;;;5015858;28;20218;-64
2022/10/29 03:46:05;;;;;;;4.40;4.10;;;21.70;50.80;;;;;;5019871;28;21083;-63
2022/10/29 03:48:31;;;;;;;4.33;4.03;;;21.70;50.80;;;;;;5020581;28;20245;-63
2022/10/29 03:51:00;;;;;;;4.20;3.93;;;21.70;50.80;;;;;;5014314;28;20459;-64
2022/10/29 03:53:26;;;;;;;4.27;3.97;;;21.70;50.20;;;;;;5018520;28;20490;-62
2022/10/29 03:55:52;;;;;;;4.40;4.20;;;21.70;50.80;;;;;;5013231;28;20498;-62
2022/10/29 03:58:18;;;;;;;4.50;4.20;;;21.70;50.80;;;;;;5016359;28;20219;-65
2022/10/29 04:00:51;;;;;;;4.27;3.97;;;21.70;50.90;;;;;;5018686;28;20537;-59
2022/10/29 04:03:17;;;;;;;4.37;4.07;;;21.70;50.80;;;;;;5017646;28;20293;-61
2022/10/29 04:05:42;;;;;;;5.00;4.60;;;21.70;50.80;;;;;;5017227;28;21004;-62
2022/10/29 04:08:08;;;;;;;4.20;3.90;;;21.70;50.80;;;;;;5015127;28;20233;-65
2022/10/29 04:10:33;;;;;;;5.13;4.77;;;21.70;50.80;;;;;;5017275;28;20298;-61
2022/10/29 04:12:59;;;;;;;4.20;3.90;;;21.70;50.80;;;;;;5018776;28;20245;-64
2022/10/29 04:15:24;;;;;;;4.50;4.20;;;21.70;51.60;;;;;;5016680;28;20905;-64
2022/10/29 04:17:50;;;;;;;4.57;4.37;;;21.70;50.80;;;;;;5026670;28;20226;-63
2022/10/29 04:20:16;;;;;;;4.37;4.13;;;21.70;50.80;;;;;;5030004;28;20221;-62
2022/10/29 04:22:41;;;;;;;4.40;4.20;;;21.70;50.80;;;;;;5044370;28;20443;-64
2022/10/29 04:25:07;;;;;;;4.90;4.57;;;21.70;50.80;;;;;;5041748;28;20275;-63
2022/10/29 04:27:33;;;;;;;4.37;4.07;;;21.70;50.80;;;;;;5038855;28;20224;-63
2022/10/29 04:29:59;;;;;;;4.83;4.43;;;21.70;50.80;;;;;;5041288;28;20458;-63
2022/10/29 04:32:24;;;;;;;4.57;4.27;;;21.70;50.80;;;;;;5036775;28;20330;-61
2022/10/29 04:34:50;;;;;;;4.50;4.30;;;21.70;50.70;;;;;;5041124;28;20237;-65
2022/10/29 04:37:15;;;;;;;4.37;4.07;;;21.70;50.80;;;;;;5042729;28;20244;-61
2022/10/29 04:39:41;;;;;;;4.60;4.40;;;21.70;50.80;;;;;;5042142;28;20253;-63
2022/10/29 04:42:06;;;;;;;4.23;4.03;;;21.70;50.70;;;;;;5039640;28;20271;-62
2022/10/29 04:44:32;;;;;;;4.20;4.00;;;21.70;50.80;;;;;;5042853;28;20245;-63
2022/10/29 04:46:57;;;;;;;4.97;4.67;;;21.70;50.80;;;;;;5039826;28;20331;-61
2022/10/29 04:49:23;;;;;;;5.93;5.43;;;21.70;50.70;;;;;;5041712;28;20214;-66
2022/10/29 04:51:48;;;;;;;4.83;4.53;;;21.70;50.70;;;;;;5039770;28;20241;-65
2022/10/29 04:54:14;;;;;;;4.80;4.50;;;21.70;50.70;;;;;;5047025;28;20224;-64
2022/10/29 04:56:40;;;;;;;4.97;4.57;;;21.70;50.70;;;;;;5036949;28;20252;-62
2022/10/29 04:59:05;;;;;;;5.33;4.93;;;21.70;50.70;;;;;;5036145;28;20218;-61
2022/10/29 05:01:31;;;;;;;4.80;4.50;;;21.70;50.60;;;;;;5019950;28;20654;-63
2022/10/29 05:03:56;;;;;;;5.43;5.03;;;21.80;50.70;;;;;;5030751;28;20668;-64
2022/10/29 05:06:22;;;;;;;6.20;5.63;;;21.80;50.70;;;;;;5039778;28;20982;-64
2022/10/29 05:08:47;;;;;;;5.30;5.00;;;21.80;50.70;;;;;;5044267;28;20237;-64
2022/10/29 05:11:13;;;;;;;4.97;4.67;;;21.80;50.70;;;;;;5047459;28;20625;-64
2022/10/29 05:13:39;;;;;;;5.23;4.90;;;21.80;50.60;;;;;;5044745;28;20210;-63
2022/10/29 05:16:05;;;;;;;5.37;4.97;;;21.80;50.70;;;;;;5043083;28;20850;-63
2022/10/29 05:18:30;;;;;;;5.00;4.60;;;21.80;50.60;;;;;;5046221;28;20218;-61
2022/10/29 05:20:56;;;;;;;4.87;4.57;;;21.80;50.60;;;;;;5041794;28;20477;-64
2022/10/29 05:23:22;;;;;;;5.80;5.40;;;21.80;50.60;;;;;;5041475;28;20451;-64
2022/10/29 05:25:50;;;;;;;5.10;4.80;;;21.80;50.60;;;;;;5044323;28;20455;-64
2022/10/29 05:28:18;;;;;;;4.70;4.40;;;21.80;50.50;;;;;;5032079;28;20515;-60
2022/10/29 05:30:44;;;;;;;5.20;4.70;;;21.80;50.60;;;;;;5041592;28;20462;-63
2022/10/29 05:33:13;;;;;;;4.67;4.37;;;21.80;50.60;;;;;;5043272;28;20454;-62
2022/10/29 05:35:39;;;;;;;4.90;4.57;;;21.80;50.50;;;;;;5042025;28;20463;-61
2022/10/29 05:38:05;;;;;;;4.53;4.23;;;21.80;50.60;;;;;;5039677;28;20456;-58
2022/10/29 05:40:31;;;;;;;4.97;4.57;;;21.80;50.50;;;;;;5037447;28;20280;-63
2022/10/29 05:42:56;;;;;;;4.60;4.30;;;21.80;50.60;;;;;;5037511;28;20222;-64
2022/10/29 05:45:22;;;;;;;4.17;3.97;;;21.80;50.60;;;;;;5027775;28;20223;-64
2022/10/29 05:47:47;;;;;;;5.53;5.03;;;21.80;50.50;;;;;;5027647;28;20238;-63
2022/10/29 05:50:13;;;;;;;4.47;4.23;;;21.80;50.60;;;;;;5038868;28;20224;-64
2022/10/29 05:52:39;;;;;;;4.80;4.50;;;21.80;50.50;;;;;;5039682;28;20333;-64
2022/10/29 05:55:06;;;;;;;5.07;4.77;;;21.80;50.50;;;;;;5038791;28;20219;-59
2022/10/29 05:57:31;;;;;;;5.03;4.63;;;21.80;50.50;;;;;;5035104;28;20272;-61
2022/10/29 05:59:57;;;;;;;4.23;4.03;;;21.80;50.50;;;;;;5042607;28;20470;-65
2022/10/29 06:02:22;;;;;;;4.83;4.63;;;21.80;50.50;;;;;;5039513;28;20227;-62
2022/10/29 06:04:48;;;;;;;4.33;4.13;;;21.80;50.50;;;;;;5041435;28;20222;-63
2022/10/29 06:07:13;;;;;;;5.33;4.83;;;21.80;50.50;;;;;;5038003;28;20576;-64
2022/10/29 06:09:39;;;;;;;4.27;3.97;;;21.80;50.50;;;;;;5041088;28;20226;-61
2022/10/29 06:12:05;;;;;;;4.83;4.57;;;21.80;50.60;;;;;;5040632;28;20241;-62
2022/10/29 06:14:31;;;;;;;3.97;3.77;;;21.80;50.60;;;;;;5039189;28;20218;-64
2022/10/29 06:16:56;;;;;;;4.57;4.27;;;21.80;50.60;;;;;;5039354;28;20462;-64
2022/10/29 06:19:22;;;;;;;4.13;3.80;;;21.80;50.60;;;;;;5039370;28;20367;-62
2022/10/29 06:21:47;;;;;;;4.70;4.40;;;21.80;50.50;;;;;;5034478;28;20316;-61
2022/10/29 06:24:13;;;;;;;4.40;4.00;;;21.80;50.50;;;;;;5039352;28;20225;-62
2022/10/29 06:26:39;;;;;;;4.80;4.50;;;21.80;50.50;;;;;;5032959;28;20671;-63
2022/10/29 06:29:05;;;;;;;4.97;4.67;;;21.80;50.50;;;;;;5036743;28;20654;-64
2022/10/29 06:31:31;;;;;;;5.13;4.83;;;21.80;51.40;;;;;;5038313;28;20562;-62
2022/10/29 06:33:56;;;;;;;4.60;4.30;;;21.80;50.60;;;;;;5028884;28;20243;-60
2022/10/29 06:36:22;;;;;;;4.73;4.33;;;21.80;50.50;;;;;;5032791;28;20233;-64
2022/10/29 06:38:47;;;;;;;5.10;4.40;;;21.80;50.60;;;;;;5034615;28;20279;-64
2022/10/29 06:41:13;;;;;;;4.53;4.23;;;21.80;50.60;;;;;;5037240;28;20585;-64
2022/10/29 06:43:39;;;;;;;4.27;4.07;;;21.80;50.50;;;;;;5041843;28;20218;-63
2022/10/29 06:46:04;;;;;;;4.00;3.80;;;21.80;50.60;;;;;;5040629;28;20267;-63
2022/10/29 06:48:30;;;;;;;4.10;3.80;;;21.80;50.60;;;;;;5040328;28;20705;-64
2022/10/29 06:50:58;;;;;;;4.60;4.30;;;21.80;50.60;;;;;;5038391;28;20234;-63
2022/10/29 06:53:24;;;;;;;5.73;4.00;;;21.80;50.60;;;;;;5038877;28;20228;-61
2022/10/29 06:55:49;;;;;;;4.50;4.17;;;21.80;50.60;;;;;;5036360;28;20460;-64
2022/10/29 06:58:17;;;;;;;4.37;3.97;;;21.80;50.60;;;;;;5039585;28;20218;-64
2022/10/29 07:00:44;;;;;;;4.03;3.73;;;21.80;50.60;;;;;;5039906;28;20226;-62
2022/10/29 07:03:17;;;;;;;4.63;4.33;;;21.80;50.60;;;;;;5030597;28;20973;-63
2022/10/29 07:05:43;;;;;;;4.33;3.97;;;21.80;50.60;;;;;;5037028;28;20969;-65
2022/10/29 07:08:09;;;;;;;4.63;4.23;;;21.80;50.60;;;;;;5028847;28;20463;-63
2022/10/29 07:10:35;;;;;;;4.73;4.33;;;21.80;50.60;;;;;;5026338;28;20230;-59
2022/10/29 07:13:01;;;;;;;4.80;4.53;;;21.80;50.70;;;;;;5023843;28;20529;-62
2022/10/29 07:15:27;;;;;;;4.33;4.13;;;21.80;50.60;;;;;;5019590;28;20696;-63
2022/10/29 07:17:58;;;;;;;4.50;4.20;;;21.90;50.70;;;;;;5026495;28;20833;-61
2022/10/29 07:20:24;;;;;;;3.83;3.53;;;21.80;50.60;;;;;;5016503;28;20463;-60
2022/10/29 07:22:50;;;;;;;3.93;3.63;;;21.80;50.60;;;;;;5018255;28;20977;-62
2022/10/29 07:25:16;;;;;;;4.60;4.30;;;21.90;50.60;;;;;;5017483;28;20496;-63
2022/10/29 07:27:41;;;;;;;4.10;3.90;;;21.80;50.60;;;;;;5013768;28;21962;-63
2022/10/29 07:30:07;;;;;;;4.30;4.00;;;21.90;50.70;;;;;;5018091;28;20222;-62
2022/10/29 07:32:32;;;;;;;4.30;4.00;;;21.80;50.60;;;;;;5027827;28;20248;-58
2022/10/29 07:34:58;;;;;;;4.67;4.37;;;21.90;50.80;;;;;;5022685;28;20873;-64
2022/10/29 07:37:23;;;;;;;4.37;4.10;;;21.80;50.60;;;;;;5020486;28;20218;-62
2022/10/29 07:39:49;;;;;;;3.80;3.60;;;21.90;50.70;;;;;;5017696;28;20693;-61
2022/10/29 07:42:14;;;;;;;4.27;3.97;;;21.90;50.70;;;;;;5017501;28;20257;-65
2022/10/29 07:44:40;;;;;;;3.57;3.27;;;21.80;50.60;;;;;;5017386;28;20316;-61
2022/10/29 07:47:06;;;;;;;4.47;4.20;;;21.80;50.60;;;;;;5025810;28;20222;-63
2022/10/29 07:49:31;;;;;;;4.13;3.90;;;21.90;50.70;;;;;;5019360;28;20763;-60
2022/10/29 07:51:57;;;;;;;4.50;4.30;;;21.80;50.60;;;;;;5013125;28;20770;-62
2022/10/29 07:54:22;;;;;;;4.53;4.23;;;21.90;50.70;;;;;;5016788;28;20218;-61
2022/10/29 07:56:51;;;;;;;4.03;3.83;;;21.90;50.70;;;;;;5023596;28;20222;-61
2022/10/29 07:59:18;;;;;;;3.80;3.60;;;21.80;50.70;;;;;;5025265;28;20226;-65
2022/10/29 08:01:43;;;;;;;4.73;4.43;;;21.90;50.70;;;;;;5024758;28;20512;-67
2022/10/29 08:04:09;;;;;;;4.10;3.80;;;21.90;50.70;;;;;;5022043;28;20865;-61
2022/10/29 08:06:34;;;;;;;3.90;3.70;;;21.90;50.70;;;;;;5023018;28;20753;-63
2022/10/29 08:09:00;;;;;;;4.27;4.07;;;21.90;50.60;;;;;;5031996;28;20249;-65
2022/10/29 08:11:25;;;;;;;5.33;4.13;;;21.90;50.70;;;;;;5030608;28;20238;-64
2022/10/29 08:13:51;;;;;;;4.77;4.47;;;21.90;50.70;;;;;;5040667;28;20317;-60
2022/10/29 08:16:16;;;;;;;4.90;4.50;;;21.90;50.80;;;;;;5029669;28;20228;-64
2022/10/29 08:18:42;;;;;;;8.10;4.00;;;21.90;51.30;;;;;;5040622;28;20550;-65
2022/10/29 08:21:07;;;;;;;4.20;3.90;;;21.90;50.60;;;;;;5035662;28;20317;-64
2022/10/29 08:23:33;;;;;;;5.60;4.40;;;21.90;50.70;;;;;;5035979;28;20218;-63
2022/10/29 08:25:58;;;;;;;4.70;4.40;;;21.90;51.30;;;;;;5035895;28;20224;-66
2022/10/29 08:28:24;;;;;;;3.93;3.50;;;21.90;50.60;;;;;;5035317;28;20309;-66
2022/10/29 08:30:50;;;;;;;4.00;3.80;;;21.90;50.60;;;;;;5036682;28;20218;-64
2022/10/29 08:33:16;;;;;;;4.67;4.33;;;21.90;50.60;;;;;;5037256;28;20611;-66
2022/10/29 08:35:41;;;;;;;4.33;4.03;;;21.90;50.60;;;;;;5034490;28;20221;-62
2022/10/29 08:38:07;;;;;;;4.40;4.07;;;21.90;50.60;;;;;;5040089;28;20455;-63
2022/10/29 08:41:16;;;;;;;4.33;4.10;;;21.90;50.60;;;;;;5039730;28;20618;-64
2022/10/29 08:44:10;;;;;;;4.53;4.33;;;21.90;50.60;;;;;;5036191;28;20643;-64
2022/10/29 08:47:12;;;;;;;4.17;3.87;;;21.90;50.60;;;;;;5043433;28;20454;-65
2022/10/29 08:50:03;;;;;;;4.77;4.37;;;21.90;50.60;;;;;;5038417;28;20769;-63
2022/10/29 08:52:34;;;;;;;4.40;4.10;;;21.90;50.60;;;;;;5039038;28;20497;-63
2022/10/29 08:54:59;;;;;;;4.37;4.07;;;21.80;50.50;;;;;;5042738;28;20463;-62
2022/10/29 08:57:26;;;;;;;4.70;4.30;;;21.90;50.60;;;;;;5031253;28;20456;-62
2022/10/29 09:00:17;;;;;;;4.80;4.50;;;21.80;50.50;;;;;;5035721;28;20275;-61
2022/10/29 09:02:42;;;;;;;4.70;4.40;;;21.90;50.60;;;;;;5032532;28;20475;-63
2022/10/29 09:05:17;;;;;;;3.70;3.50;;;21.90;50.60;;;;;;5035297;28;20470;-61
2022/10/29 09:08:04;;;;;;;4.30;4.00;;;21.90;50.60;;;;;;5037944;28;20221;-64
2022/10/29 09:10:56;;;;;;;4.70;4.30;;;21.90;50.60;;;;;;5040040;28;20458;-61
2022/10/29 09:13:48;;;;;;;4.80;4.33;;;21.90;50.50;;;;;;5037090;28;20833;-65
2022/10/29 09:16:24;;;;;;;4.60;4.20;;;21.80;50.50;;;;;;5039777;28;20508;-65
2022/10/29 09:19:30;;;;;;;4.00;3.60;;;21.90;50.60;;;;;;5038600;28;20475;-64
2022/10/29 09:22:31;;;;;;;5.10;3.83;;;21.90;50.60;;;;;;5037899;28;20443;-65
2022/10/29 09:24:59;;;;;;;4.03;3.73;;;21.90;50.60;;;;;;5042521;28;20523;-66
2022/10/29 09:27:46;;;;;;;4.30;4.00;;;21.90;50.60;;;;;;5041335;28;20485;-65
2022/10/29 09:30:15;;;;;;;3.97;3.67;;;21.90;50.50;;;;;;5043927;28;20475;-62
2022/10/29 09:32:59;;;;;;;4.50;4.10;;;21.90;50.50;;;;;;5037461;28;20507;-62
2022/10/29 09:35:40;;;;;;;3.80;3.50;;;21.90;50.50;;;;;;5039124;28;20467;-65
2022/10/29 09:38:15;;;;;;;4.43;3.80;;;21.90;50.60;;;;;;5026029;28;20459;-61
2022/10/29 09:40:42;;;;;;;4.70;4.40;;;21.90;50.60;;;;;;5035281;28;20824;-60
2022/10/29 09:43:42;;;;;;;4.50;4.20;;;21.90;50.60;;;;;;5038194;28;20443;-63
2022/10/29 09:46:20;;;;;;;4.30;4.10;;;21.90;50.60;;;;;;5037352;28;20939;-64
2022/10/29 09:49:18;;;;;;;4.50;4.27;;;21.90;50.60;;;;;;5037319;28;20459;-60
2022/10/29 09:51:53;;;;;;;4.87;4.47;;;21.90;50.60;;;;;;5038707;28;20471;-61
2022/10/29 09:54:19;;;;;;;4.73;4.43;;;21.90;50.60;;;;;;5042533;28;20625;-64
2022/10/29 09:56:46;;;;;;;9.50;6.73;;;21.90;50.60;;;;;;5039896;28;20562;-63
2022/10/29 09:59:30;;;;;;;6.27;5.47;;;21.90;51.10;;;;;;5034699;28;20993;-63
2022/10/29 10:01:59;;;;;;;6.63;6.00;;;21.90;50.10;;;;;;5039184;28;20509;-62
2022/10/29 10:04:34;;;;;;;4.87;4.30;;;21.90;49.90;;;;;;5036403;28;21117;-65
2022/10/29 10:07:14;;;;;;;5.03;4.63;;;22.00;49.90;;;;;;5038688;28;20461;-62
2022/10/29 10:09:52;;;;;;;6.87;4.63;;;22.00;50.00;;;;;;5034932;28;20433;-63
2022/10/29 10:12:19;;;;;;;6.60;5.63;;;22.00;50.00;;;;;;5035667;28;20838;-64
2022/10/29 10:14:47;;;;;;;4.57;4.17;;;22.00;50.10;;;;;;5034666;28;20455;-65
2022/10/29 10:17:13;;;;;;;4.13;3.83;;;21.90;50.10;;;;;;5039784;28;20462;-64
2022/10/29 10:19:44;;;;;;;5.03;4.60;;;22.00;50.20;;;;;;5039572;28;20586;-65
2022/10/29 10:22:23;;;;;;;4.00;3.70;;;21.90;50.20;;;;;;5038561;28;20483;-66
2022/10/29 10:24:49;;;;;;;7.43;4.73;;;21.90;50.20;;;;;;5028566;28;20460;-65
2022/10/29 10:27:17;;;;;;;5.00;4.50;;;21.90;50.20;;;;;;5013883;28;20533;-61
2022/10/29 10:30:03;;;;;;;5.80;5.30;;;21.90;50.20;;;;;;5030749;28;20472;-62
2022/10/29 10:32:28;;;;;;;3.93;3.63;;;21.90;50.30;;;;;;5027616;28;20559;-62
2022/10/29 10:34:54;;;;;;;5.70;5.23;;;21.90;50.30;;;;;;5029114;28;20474;-66
2022/10/29 10:37:20;;;;;;;5.17;4.53;;;21.90;50.30;;;;;;5036014;28;20302;-66
2022/10/29 10:40:04;;;;;;;4.80;4.47;;;21.90;50.30;;;;;;5031886;28;20322;-64
2022/10/29 10:42:38;;;;;;;4.43;4.13;;;21.90;50.30;;;;;;5035395;28;20221;-65
2022/10/29 10:45:15;;;;;;;5.37;4.97;;;21.90;50.50;;;;;;5020004;28;20518;-64
2022/10/29 10:47:45;;;;;;;6.30;4.20;;;21.90;50.50;;;;;;5030531;28;20456;-63
2022/10/29 10:50:21;;;;;;;5.10;4.57;;;21.90;50.50;;;;;;5021278;28;20455;-65
2022/10/29 10:52:48;;;;;;;5.13;4.73;;;21.90;51.20;;;;;;5022228;28;20562;-66
2022/10/29 10:55:45;;;;;;;7.43;4.40;;;21.90;50.50;;;;;;5035168;28;20456;-63
2022/10/29 10:58:18;;;;;;;4.73;4.40;;;21.90;51.20;;;;;;5034418;28;21330;-62
2022/10/29 11:00:53;;;;;;;5.53;4.00;;;21.90;50.50;;;;;;5039112;28;20463;-65
2022/10/29 11:03:37;;;;;;;4.33;3.93;;;21.90;50.60;;;;;;5024877;28;20528;-65
2022/10/29 11:06:15;;;;;;;5.00;4.50;;;21.90;50.60;;;;;;5036564;28;20544;-66
2022/10/29 11:09:04;;;;;;;4.80;4.50;;;21.90;50.60;;;;;;5037639;28;20454;-64
2022/10/29 11:11:36;;;;;;;4.17;3.97;;;21.90;50.60;;;;;;5033512;28;20466;-63
2022/10/29 11:14:14;;;;;;;4.50;4.20;;;21.90;50.60;;;;;;5036947;28;21395;-65
2022/10/29 11:16:47;;;;;;;4.67;4.37;;;21.90;50.70;;;;;;5037839;28;20447;-63
2022/10/29 11:19:22;;;;;;;4.43;4.03;;;21.90;50.70;;;;;;5038777;28;20447;-62
2022/10/29 11:22:12;;;;;;;5.07;4.57;;;21.90;50.70;;;;;;5034052;28;20471;-64
2022/10/29 11:24:47;;;;;;;4.37;4.00;;;21.90;50.70;;;;;;5039273;28;20574;-64
2022/10/29 11:27:31;;;;;;;6.30;4.20;;;21.90;50.70;;;;;;5034836;28;20455;-65
2022/10/29 11:30:05;;;;;;;4.40;3.93;;;21.90;50.70;;;;;;5041685;28;20455;-65
2022/10/29 11:32:40;;;;;;;4.63;3.63;;;21.90;50.70;;;;;;5031685;28;20463;-66
2022/10/29 11:35:35;;;;;;;6.00;4.87;;;21.90;50.80;;;;;;5035550;28;20471;-62
2022/10/29 11:38:13;;;;;;;4.03;3.73;;;21.90;50.70;;;;;;5032825;28;20466;-65
2022/10/29 11:40:49;;;;;;;3.97;3.57;;;21.90;50.70;;;;;;5037067;28;20475;-65
2022/10/29 11:43:18;;;;;;;4.03;3.73;;;21.80;50.60;;;;;;5039195;28;20446;-65
2022/10/29 11:46:05;;;;;;;4.00;3.73;;;21.90;50.80;;;;;;5036599;28;20464;-61
2022/10/29 11:48:43;;;;;;;4.10;3.70;;;21.90;50.80;;;;;;5039997;28;20454;-65
2022/10/29 11:51:17;;;;;;;3.63;3.43;;;21.90;50.80;;;;;;5032337;28;20466;-65
2022/10/29 11:53:57;;;;;;;3.90;3.60;;;21.90;50.70;;;;;;5033628;28;20466;-65
2022/10/29 11:56:43;;;;;;;4.37;3.70;;;21.90;50.70;;;;;;5037175;28;20505;-65
2022/10/29 11:59:42;;;;;;;4.07;3.70;;;21.90;50.70;;;;;;5035392;28;20496;-65
2022/10/29 12:02:14;;;;;;;4.13;3.83;;;21.90;50.80;;;;;;5035280;28;20463;-66
2022/10/29 12:04:49;;;;;;;4.70;4.30;;;21.90;50.90;;;;;;5038091;28;20463;-64
2022/10/29 12:07:28;;;;;;;5.23;3.63;;;21.90;50.80;;;;;;5033334;28;20840;-64
2022/10/29 12:10:03;;;;;;;4.57;4.27;;;21.90;50.80;;;;;;5034234;28;20555;-66
2022/10/29 12:12:42;;;;;;;3.53;3.33;;;21.90;50.80;;;;;;5038938;28;20455;-67
2022/10/29 12:15:38;;;;;;;4.00;3.70;;;21.90;50.80;;;;;;5035368;28;20992;-66
2022/10/29 12:18:25;;;;;;;3.93;3.63;;;21.90;50.80;;;;;;5038599;28;20460;-64
2022/10/29 12:21:06;;;;;;;3.90;3.40;;;21.90;50.80;;;;;;5032200;28;20512;-64
2022/10/29 12:23:55;;;;;;;4.77;3.77;;;21.90;50.80;;;;;;5039297;28;20607;-66
2022/10/29 12:26:51;;;;;;;3.77;3.47;;;21.90;50.90;;;;;;5035570;28;20463;-64
2022/10/29 12:29:46;;;;;;;4.53;4.13;;;21.90;50.80;;;;;;5055996;28;20467;-61
2022/10/29 12:32:33;;;;;;;3.50;3.30;;;21.90;50.80;;;;;;5032004;28;20878;-62
2022/10/29 12:35:24;;;;;;;4.10;3.70;;;21.90;50.90;;;;;;5043574;28;22273;-64
2022/10/29 12:38:14;;;;;;;3.80;3.60;;;21.90;50.90;;;;;;5033965;28;20860;-67
2022/10/29 12:40:43;;;;;;;3.70;3.40;;;21.90;50.80;;;;;;5033250;28;20463;-65
2022/10/29 12:43:25;;;;;;;3.80;3.60;;;21.90;50.90;;;;;;5034788;28;20447;-65
2022/10/29 12:46:10;;;;;;;3.70;3.40;;;21.90;50.80;;;;;;5033984;28;20558;-64
2022/10/29 12:48:57;;;;;;;3.97;3.67;;;21.90;50.90;;;;;;5025537;28;21010;-65
2022/10/29 12:51:59;;;;;;;4.20;3.80;;;21.90;50.80;;;;;;5033230;28;20473;-62
2022/10/29 12:54:40;;;;;;;4.50;4.10;;;21.90;50.80;;;;;;5023587;28;20482;-66
2022/10/29 12:57:30;;;;;;;3.73;3.53;;;21.90;50.90;;;;;;5041186;28;21223;-63
2022/10/29 12:59:57;;;;;;;4.47;4.17;;;21.90;50.80;;;;;;5035483;28;20755;-66
2022/10/29 13:02:38;;;;;;;4.57;4.17;;;21.90;50.90;;;;;;5040834;28;20462;-64
2022/10/29 13:05:09;;;;;;;3.80;3.50;;;21.90;50.90;;;;;;5037626;28;21283;-64
2022/10/29 13:07:41;;;;;;;4.00;3.63;;;21.90;50.90;;;;;;5032626;28;20531;-62
2022/10/29 13:10:22;;;;;;;3.77;3.40;;;21.90;51.00;;;;;;5037952;28;20934;-65